createdAt,value
2018-04-28T00:00:00.253Z,51.10
2018-04-28T00:02:27.798Z,50.80
2018-04-28T00:04:56.325Z,50.70
2018-04-28T00:07:24.369Z,50.70
2018-04-28T00:09:52.140Z,49.90
2018-04-28T00:12:20.918Z,50.00
2018-04-28T00:14:48.679Z,50.00
2018-04-28T00:17:16.538Z,49.90
2018-04-28T00:19:45.166Z,50.00
2018-04-28T00:22:19.503Z,49.40
2018-04-28T00:24:56.171Z,49.90
2018-04-28T00:27:28.383Z,49.90
2018-04-28T00:32:49.626Z,50.70
2018-04-28T00:35:17.381Z,50.30
2018-04-28T00:37:50.721Z,50.50
2018-04-28T00:40:19.298Z,50.70
2018-04-28T00:42:48.930Z,50.40
2018-04-28T00:45:19.261Z,51.20
2018-04-28T00:47:50.300Z,51.60
2018-04-28T00:50:31.430Z,51.70
2018-04-28T00:52:59.273Z,51.70
2018-04-28T00:55:32.508Z,52.00
2018-04-28T00:58:06.125Z,52.10
2018-04-28T01:01:06.636Z,52.20
2018-04-28T01:03:36.049Z,51.80
2018-04-28T01:06:04.153Z,52.10
2018-04-28T01:08:32.745Z,52.30
2018-04-28T01:11:03.364Z,52.30
2018-04-28T01:13:47.632Z,52.50
2018-04-28T01:16:16.136Z,52.50
2018-04-28T01:18:52.497Z,52.40
2018-04-28T01:21:21.188Z,52.60
2018-04-28T01:23:48.998Z,52.90
2018-04-28T01:26:22.053Z,53.10
2018-04-28T01:29:09.671Z,53.10
2018-04-28T01:31:38.287Z,52.80
2018-04-28T01:34:10.317Z,52.90
2018-04-28T01:36:44.965Z,52.90
2018-04-28T01:39:16.395Z,53.10
2018-04-28T01:41:53.895Z,53.40
2018-04-28T01:44:25.297Z,53.30
2018-04-28T01:50:15.915Z,53.70
2018-04-28T01:52:43.689Z,53.70
2018-04-28T01:55:16.073Z,53.60
2018-04-28T02:00:48.175Z,53.60
2018-04-28T02:03:17.715Z,53.70
2018-04-28T02:06:04.220Z,53.70
2018-04-28T02:08:31.985Z,53.80
2018-04-28T02:11:00.698Z,53.70
2018-04-28T02:16:33.089Z,54.10
2018-04-28T02:19:21.413Z,54.10
2018-04-28T02:22:05.725Z,54.20
2018-04-28T02:24:34.507Z,54.20
2018-04-28T02:27:10.228Z,54.30
2018-04-28T02:29:39.928Z,54.40
2018-04-28T02:32:15.409Z,54.40
2018-04-28T02:34:44.114Z,54.50
2018-04-28T02:37:22.634Z,54.90
2018-04-28T02:40:06.693Z,54.90
2018-04-28T02:46:03.525Z,55.20
2018-04-28T02:48:49.522Z,55.10
2018-04-28T02:51:23.113Z,55.00
2018-04-28T02:53:54.517Z,54.90
2018-04-28T02:56:27.152Z,55.00
2018-04-28T02:59:00.886Z,54.90
2018-04-28T03:01:37.361Z,54.90
2018-04-28T03:04:07.086Z,54.90
2018-04-28T03:06:36.643Z,54.80
2018-04-28T03:09:05.254Z,54.90
2018-04-28T03:11:35.278Z,55.40
2018-04-28T03:14:03.034Z,55.30
2018-04-28T03:19:28.362Z,55.90
2018-04-28T03:21:58.876Z,55.80
2018-04-28T03:24:52.954Z,55.90
2018-04-28T03:27:24.962Z,55.80
2018-04-28T03:29:53.495Z,55.70
2018-04-28T03:32:33.770Z,55.70
2018-04-28T03:35:16.442Z,55.70
2018-04-28T03:37:53.880Z,55.50
2018-04-28T03:40:23.252Z,55.60
2018-04-28T03:42:53.707Z,55.90
2018-04-28T03:45:22.421Z,55.90
2018-04-28T03:48:10.719Z,55.90
2018-04-28T03:53:44.162Z,56.10
2018-04-28T03:56:13.500Z,56.20
2018-04-28T03:58:53.352Z,56.30
2018-04-28T04:01:33.102Z,56.40
2018-04-28T04:04:11.493Z,56.20
2018-04-28T04:06:45.053Z,56.50
2018-04-28T04:09:23.351Z,57.70
2018-04-28T04:12:06.735Z,57.60
2018-04-28T04:14:57.337Z,58.00
2018-04-28T04:17:31.198Z,57.80
2018-04-28T04:22:57.861Z,58.10
2018-04-28T04:28:38.521Z,57.80
2018-04-28T04:31:24.719Z,59.10
2018-04-28T04:33:54.422Z,59.10
2018-04-28T04:36:32.971Z,59.20
2018-04-28T04:42:13.285Z,59.40
2018-04-28T04:44:44.493Z,59.30
2018-04-28T04:50:29.463Z,61.70
2018-04-28T04:52:59.564Z,60.00
2018-04-28T04:55:35.093Z,60.00
2018-04-28T05:01:17.062Z,60.00
2018-04-28T05:04:00.299Z,60.20
2018-04-28T05:09:37.890Z,60.50
2018-04-28T05:12:11.644Z,60.20
2018-04-28T05:14:52.041Z,60.70
2018-04-28T05:17:31.585Z,60.70
2018-04-28T05:23:17.181Z,62.10
2018-04-28T05:25:53.656Z,61.80
2018-04-28T05:28:33.430Z,61.40
2018-04-28T05:34:28.578Z,61.40
2018-04-28T05:40:19.664Z,61.70
2018-04-28T05:42:59.488Z,61.80
2018-04-28T05:45:37.215Z,62.70
2018-04-28T05:48:25.747Z,62.20
2018-04-28T05:51:08.562Z,62.00
2018-04-28T05:53:59.398Z,62.20
2018-04-28T05:59:41.433Z,63.70
2018-04-28T06:02:23.869Z,62.00
2018-04-28T06:05:03.418Z,61.90
2018-04-28T06:07:47.953Z,61.70
2018-04-28T06:13:25.089Z,61.30
2018-04-28T06:16:05.667Z,61.30
2018-04-28T06:18:52.320Z,60.00
2018-04-28T06:21:20.749Z,61.10
2018-04-28T06:23:50.173Z,61.30
2018-04-28T06:26:17.948Z,61.20
2018-04-28T06:28:46.467Z,60.90
2018-04-28T06:31:14.242Z,60.90
2018-04-28T06:33:43.049Z,60.50
2018-04-28T06:36:11.156Z,60.20
2018-04-28T06:38:39.678Z,61.30
2018-04-28T06:41:07.512Z,61.10
2018-04-28T06:43:37.046Z,60.40
2018-04-28T06:46:04.817Z,61.10
2018-04-28T06:48:32.579Z,62.00
2018-04-28T06:51:01.102Z,61.70
2018-04-28T06:53:32.112Z,61.90
2018-04-28T06:55:59.913Z,61.90
2018-04-28T06:58:28.513Z,62.50
2018-04-28T07:00:56.432Z,62.40
2018-04-28T07:03:25.154Z,62.50
2018-04-28T07:05:53.672Z,64.80
2018-04-28T07:08:21.431Z,64.80
2018-04-28T07:10:49.597Z,65.00
2018-04-28T07:13:17.496Z,65.60
2018-04-28T07:15:45.258Z,64.80
2018-04-28T07:18:13.048Z,66.30
2018-04-28T07:20:41.574Z,63.00
2018-04-28T07:23:09.329Z,62.90
2018-04-28T07:25:37.105Z,63.20
2018-04-28T07:28:04.872Z,63.30
2018-04-28T07:30:32.965Z,64.90
2018-04-28T07:33:00.759Z,67.00
2018-04-28T07:35:29.505Z,68.30
2018-04-28T07:37:57.254Z,68.30
2018-04-28T07:40:25.030Z,67.10
2018-04-28T07:42:53.138Z,67.20
2018-04-28T07:45:21.680Z,66.60
2018-04-28T07:47:49.476Z,66.60
2018-04-28T07:50:18.001Z,65.10
2018-04-28T07:52:47.478Z,65.10
2018-04-28T07:55:16.680Z,65.50
2018-04-28T07:57:45.111Z,65.50
2018-04-28T08:00:12.939Z,64.60
2018-04-28T08:02:40.832Z,64.60
2018-04-28T08:05:08.589Z,64.70
2018-04-28T08:07:36.364Z,64.80
2018-04-28T08:10:04.632Z,64.30
2018-04-28T08:12:32.390Z,63.10
2018-04-28T08:15:01.066Z,62.00
2018-04-28T08:17:28.813Z,62.20
2018-04-28T08:19:56.589Z,62.30
2018-04-28T08:22:24.336Z,61.90
2018-04-28T08:24:52.113Z,61.60
2018-04-28T08:27:19.872Z,61.90
2018-04-28T08:29:47.415Z,62.40
2018-04-28T08:32:15.179Z,61.70
2018-04-28T08:34:42.965Z,61.30
2018-04-28T08:37:10.532Z,60.40
2018-04-28T08:39:39.230Z,60.20
2018-04-28T08:42:07.009Z,60.20
2018-04-28T08:44:35.248Z,60.20
2018-04-28T08:47:03.673Z,60.00
2018-04-28T08:49:32.867Z,60.10
2018-04-28T08:52:02.176Z,59.50
2018-04-28T08:54:30.701Z,59.70
2018-04-28T08:56:58.820Z,59.70
2018-04-28T08:59:39.290Z,58.90
2018-04-28T09:02:08.500Z,60.10
2018-04-28T09:04:36.924Z,60.20
2018-04-28T09:10:08.349Z,59.20
2018-04-28T09:12:36.790Z,59.10
2018-04-28T09:15:05.985Z,59.00
2018-04-28T09:17:34.418Z,59.10
2018-04-28T09:20:02.861Z,59.20
2018-04-28T09:22:32.788Z,58.50
2018-04-28T09:25:02.477Z,58.50
2018-04-28T09:27:32.545Z,58.60
2018-04-28T09:30:01.939Z,58.60
2018-04-28T09:32:31.610Z,59.40
2018-04-28T09:35:00.823Z,59.00
2018-04-28T09:37:29.566Z,59.10
2018-04-28T09:39:58.032Z,59.00
2018-04-28T09:42:26.647Z,58.70
2018-04-28T09:44:55.832Z,58.80
2018-04-28T09:47:24.272Z,58.80
2018-04-28T09:49:52.704Z,58.00
2018-04-28T09:52:21.909Z,57.90
2018-04-28T09:54:51.108Z,58.90
2018-04-28T09:57:19.553Z,58.80
2018-04-28T09:59:48.003Z,58.10
2018-04-28T10:02:18.149Z,58.00
2018-04-28T10:04:46.571Z,57.50
2018-04-28T10:07:14.992Z,57.90
2018-04-28T10:09:43.442Z,57.60
2018-04-28T10:12:11.860Z,57.50
2018-04-28T10:14:40.297Z,57.60
2018-04-28T10:17:08.723Z,57.70
2018-04-28T10:19:37.154Z,57.70
2018-04-28T10:22:05.607Z,57.60
2018-04-28T10:24:34.796Z,58.40
2018-04-28T10:27:04.002Z,58.10
2018-04-28T10:29:33.193Z,58.40
2018-04-28T10:32:02.777Z,58.30
2018-04-28T10:34:31.195Z,58.30
2018-04-28T10:36:59.699Z,58.00
2018-04-28T10:39:28.121Z,57.50
2018-04-28T10:41:56.564Z,57.50
2018-04-28T10:44:24.989Z,57.40
2018-04-28T10:46:54.201Z,57.60
2018-04-28T10:49:22.637Z,57.50
2018-04-28T10:51:51.077Z,57.40
2018-04-28T10:54:19.528Z,58.10
2018-04-28T10:56:48.733Z,56.60
2018-04-28T10:59:17.924Z,57.00
2018-04-28T11:01:47.221Z,56.50
2018-04-28T11:04:16.420Z,56.30
2018-04-28T11:06:45.609Z,56.50
2018-04-28T11:09:14.843Z,56.80
2018-04-28T11:11:43.282Z,56.80
2018-04-28T11:14:12.509Z,55.80
2018-04-28T11:16:40.951Z,55.80
2018-04-28T11:19:09.150Z,56.40
2018-04-28T11:21:37.364Z,56.00
2018-04-28T11:24:06.570Z,55.30
2018-04-28T11:26:34.993Z,55.30
2018-04-28T11:29:04.196Z,55.10
2018-04-28T11:31:32.621Z,55.10
2018-04-28T11:34:01.610Z,55.00
2018-04-28T11:36:30.053Z,55.30
2018-04-28T11:38:58.470Z,54.50
2018-04-28T11:41:26.909Z,54.50
2018-04-28T11:43:55.351Z,54.00
2018-04-28T11:46:23.794Z,54.90
2018-04-28T11:48:52.228Z,57.10
2018-04-28T11:51:21.452Z,54.80
2018-04-28T11:53:49.885Z,54.80
2018-04-28T11:56:18.510Z,55.40
2018-04-28T11:58:46.964Z,55.20
2018-04-28T12:01:16.150Z,56.10
2018-04-28T12:03:45.353Z,56.20
2018-04-28T12:06:14.569Z,55.10
2018-04-28T12:08:43.062Z,55.10
2018-04-28T12:11:11.493Z,53.30
2018-04-28T12:13:40.884Z,55.50
2018-04-28T12:16:09.320Z,54.40
2018-04-28T12:18:37.804Z,53.90
2018-04-28T12:21:06.238Z,53.90
2018-04-28T12:23:35.826Z,54.70
2018-04-28T12:26:04.253Z,55.00
2018-04-28T12:28:32.682Z,54.60
2018-04-28T12:31:01.502Z,55.30
2018-04-28T12:33:31.829Z,55.30
2018-04-28T12:36:01.082Z,55.70
2018-04-28T12:38:29.745Z,55.70
2018-04-28T12:40:58.184Z,54.80
2018-04-28T12:43:28.374Z,55.60
2018-04-28T12:45:56.801Z,55.60
2018-04-28T12:48:25.255Z,56.00
2018-04-28T12:50:54.431Z,55.90
2018-04-28T12:53:23.813Z,55.90
2018-04-28T12:55:52.249Z,54.80
2018-04-28T12:58:20.698Z,54.80
2018-04-28T13:00:49.139Z,54.20
2018-04-28T13:03:17.571Z,54.90
2018-04-28T13:05:46.762Z,54.00
2018-04-28T13:08:15.953Z,54.80
2018-04-28T13:10:45.148Z,54.50
2018-04-28T13:13:14.347Z,54.30
2018-04-28T13:15:43.572Z,54.60
2018-04-28T13:18:12.190Z,54.50
2018-04-28T13:20:40.612Z,54.10
2018-04-28T13:23:09.810Z,54.00
2018-04-28T13:25:39.015Z,53.60
2018-04-28T13:28:07.504Z,53.60
2018-04-28T13:30:35.940Z,53.00
2018-04-28T13:33:04.376Z,53.70
2018-04-28T13:35:32.792Z,53.80
2018-04-28T13:38:02.015Z,54.50
2018-04-28T13:40:31.836Z,52.50
2018-04-28T13:43:02.029Z,52.90
2018-04-28T13:45:31.257Z,52.90
2018-04-28T13:47:59.860Z,53.50
2018-04-28T13:50:28.305Z,53.70
2018-04-28T13:52:57.500Z,54.00
2018-04-28T13:55:26.703Z,52.90
2018-04-28T13:57:55.905Z,53.10
2018-04-28T14:00:25.106Z,53.60
2018-04-28T14:02:53.532Z,53.60
2018-04-28T14:05:21.957Z,54.20
2018-04-28T14:07:51.165Z,53.20
2018-04-28T14:10:19.602Z,53.20
2018-04-28T14:12:48.050Z,53.10
2018-04-28T14:15:16.470Z,52.30
2018-04-28T14:17:44.728Z,52.50
2018-04-28T14:20:12.930Z,52.50
2018-04-28T14:22:42.123Z,50.80
2018-04-28T14:25:11.326Z,50.70
2018-04-28T14:27:40.297Z,50.50
2018-04-28T14:30:08.736Z,50.50
2018-04-28T14:32:37.167Z,51.20
2018-04-28T14:35:06.380Z,50.60
2018-04-28T14:37:34.808Z,50.60
2018-04-28T14:40:03.686Z,50.40
2018-04-28T14:42:40.337Z,50.40
2018-04-28T14:45:08.776Z,49.30
2018-04-28T14:47:37.208Z,50.30
2018-04-28T14:50:04.989Z,49.80
2018-04-28T14:52:34.185Z,49.80
2018-04-28T14:55:03.390Z,50.00
2018-04-28T14:57:32.781Z,48.80
2018-04-28T15:00:01.765Z,48.50
2018-04-28T15:02:30.963Z,48.20
2018-04-28T15:05:00.184Z,47.90
2018-04-28T15:07:28.640Z,47.90
2018-04-28T15:09:57.847Z,48.00
2018-04-28T15:12:27.055Z,47.90
2018-04-28T15:14:55.482Z,47.90
2018-04-28T15:17:23.953Z,48.00
2018-04-28T15:19:52.377Z,48.40
2018-04-28T15:22:21.574Z,47.80
2018-04-28T15:24:50.783Z,47.60
2018-04-28T15:27:19.221Z,47.60
2018-04-28T15:29:47.661Z,47.90
2018-04-28T15:32:16.110Z,47.20
2018-04-28T15:34:45.302Z,48.40
2018-04-28T15:37:14.516Z,49.30
2018-04-28T15:39:42.981Z,49.20
2018-04-28T15:42:12.228Z,49.60
2018-04-28T15:44:40.715Z,49.60
2018-04-28T15:47:09.193Z,48.80
2018-04-28T15:49:37.674Z,48.40
2018-04-28T15:52:06.900Z,48.90
2018-04-28T15:54:36.154Z,50.30
2018-04-28T15:57:04.602Z,50.30
2018-04-28T15:59:33.086Z,49.70
2018-04-28T16:02:01.619Z,49.80
2018-04-28T16:04:30.092Z,49.50
2018-04-28T16:06:58.591Z,50.10
2018-04-28T16:09:27.128Z,51.00
2018-04-28T16:11:55.684Z,50.00
2018-04-28T16:14:24.118Z,50.90
2018-04-28T16:16:52.590Z,51.00
2018-04-28T16:19:20.967Z,50.10
2018-04-28T16:21:49.501Z,50.70
2018-04-28T16:24:18.077Z,50.40
2018-04-28T16:26:47.328Z,50.70
2018-04-28T16:29:15.836Z,50.70
2018-04-28T16:31:45.053Z,51.10
2018-04-28T16:34:14.264Z,50.20
2018-04-28T16:36:42.685Z,50.30
2018-04-28T16:39:11.124Z,50.40
2018-04-28T16:41:39.621Z,50.70
2018-04-28T16:44:08.058Z,51.20
2018-04-28T16:46:37.253Z,51.00
2018-04-28T16:49:06.460Z,50.50
2018-04-28T16:51:35.686Z,50.90
2018-04-28T16:54:03.774Z,50.90
2018-04-28T16:56:32.232Z,50.20
2018-04-28T16:59:02.001Z,51.00
2018-04-28T17:01:30.593Z,51.20
2018-04-28T17:03:59.921Z,51.70
2018-04-28T17:06:28.427Z,51.70
2018-04-28T17:08:57.778Z,51.90
2018-04-28T17:11:27.002Z,51.20
2018-04-28T17:13:55.435Z,51.20
2018-04-28T17:16:24.628Z,51.80
2018-04-28T17:18:53.058Z,51.70
2018-04-28T17:21:21.489Z,52.80
2018-04-28T17:23:50.758Z,53.40
2018-04-28T17:26:20.088Z,53.10
2018-04-28T17:28:49.286Z,53.40
2018-04-28T17:31:18.482Z,53.60
2018-04-28T17:33:47.692Z,53.80
2018-04-28T17:36:16.901Z,53.90
2018-04-28T17:38:45.332Z,53.80
2018-04-28T17:41:13.767Z,53.90
2018-04-28T17:43:42.661Z,52.90
2018-04-28T17:46:10.868Z,52.30
2018-04-28T17:48:39.294Z,52.70
2018-04-28T17:51:07.739Z,53.40
2018-04-28T17:53:36.200Z,53.30
2018-04-28T17:56:04.624Z,53.40
2018-04-28T17:58:33.812Z,53.40
2018-04-28T18:01:03.027Z,53.60
2018-04-28T18:03:31.462Z,53.60
2018-04-28T18:05:59.930Z,54.10
2018-04-28T18:08:28.040Z,53.90
2018-04-28T18:10:57.223Z,53.70
2018-04-28T18:13:25.681Z,53.80
2018-04-28T18:15:54.129Z,54.80
2018-04-28T18:18:22.544Z,54.10
2018-04-28T18:20:51.003Z,54.10
2018-04-28T18:23:19.437Z,54.60
2018-04-28T18:25:48.629Z,55.30
2018-04-28T18:28:17.528Z,55.40
2018-04-28T18:30:45.978Z,55.30
2018-04-28T18:33:15.199Z,56.00
2018-04-28T18:35:43.629Z,55.60
2018-04-28T18:38:12.079Z,55.70
2018-04-28T18:40:40.553Z,55.60
2018-04-28T18:43:09.201Z,55.90
2018-04-28T18:45:38.434Z,56.00
2018-04-28T18:48:06.857Z,56.00
2018-04-28T18:50:35.310Z,56.20
2018-04-28T18:53:03.766Z,56.20
2018-04-28T18:55:32.201Z,56.10
2018-04-28T18:58:00.679Z,56.30
2018-04-28T19:00:29.141Z,56.40
2018-04-28T19:02:57.564Z,56.60
2018-04-28T19:05:26.553Z,56.60
2018-04-28T19:07:55.751Z,56.60
2018-04-28T19:10:24.943Z,57.00
2018-04-28T19:12:54.145Z,57.20
2018-04-28T19:15:23.357Z,57.00
2018-04-28T19:17:51.795Z,57.00
2018-04-28T19:20:20.253Z,57.00
2018-04-28T19:22:48.676Z,57.00
2018-04-28T19:25:17.872Z,57.60
2018-04-28T19:27:47.082Z,57.50
2018-04-28T19:30:15.500Z,57.50
2018-04-28T19:32:44.701Z,57.50
2018-04-28T19:35:13.126Z,57.50
2018-04-28T19:37:42.362Z,57.40
2018-04-28T19:40:10.789Z,57.40
2018-04-28T19:42:39.976Z,57.40
2018-04-28T19:45:08.442Z,57.40
2018-04-28T19:47:36.885Z,57.60
2018-04-28T19:50:04.979Z,57.70
2018-04-28T19:52:33.416Z,57.70
2018-04-28T19:55:02.476Z,57.90
2018-04-28T19:57:31.495Z,57.90
2018-04-28T20:00:00.103Z,58.20
2018-04-28T20:02:28.308Z,58.50
2018-04-28T20:04:56.503Z,58.40
2018-04-28T20:07:24.733Z,58.40
2018-04-28T20:09:53.187Z,58.60
2018-04-28T20:12:21.820Z,58.50
2018-04-28T20:14:50.249Z,58.50
2018-04-28T20:17:18.705Z,58.40
2018-04-28T20:19:47.898Z,58.00
2018-04-28T20:22:28.255Z,58.20
2018-04-28T20:25:08.573Z,58.20
2018-04-28T20:27:36.997Z,58.20
2018-04-28T20:30:06.200Z,58.10
2018-04-28T20:32:35.388Z,58.20
2018-04-28T20:35:04.602Z,58.00
2018-04-28T20:37:33.046Z,58.00
2018-04-28T20:40:02.450Z,58.20
2018-04-28T20:42:31.653Z,58.10
2018-04-28T20:45:00.130Z,58.20
2018-04-28T20:47:29.344Z,58.10
2018-04-28T20:49:58.536Z,57.90
2018-04-28T20:52:27.750Z,57.70
2018-04-28T20:54:55.849Z,57.70
2018-04-28T20:57:24.310Z,58.10
2018-04-28T20:59:52.770Z,58.10
2018-04-28T21:02:21.363Z,58.10
2018-04-28T21:04:49.817Z,58.10
2018-04-28T21:07:19.012Z,58.30
2018-04-28T21:09:48.220Z,58.40
2018-04-28T21:12:17.190Z,58.60
2018-04-28T21:14:45.620Z,58.50
2018-04-28T21:17:14.044Z,58.40
2018-04-28T21:19:42.489Z,58.30
2018-04-28T21:22:10.916Z,58.00
2018-04-28T21:24:40.169Z,58.70
2018-04-28T21:27:09.532Z,58.90
2018-04-28T21:29:38.721Z,59.00
2018-04-28T21:32:07.923Z,59.10
2018-04-28T21:34:37.113Z,59.40
2018-04-28T21:37:05.981Z,59.30
2018-04-28T21:39:34.408Z,59.30
2018-04-28T21:42:03.342Z,59.20
2018-04-28T21:44:32.433Z,59.20
2018-04-28T21:47:01.537Z,59.40
2018-04-28T21:49:30.117Z,59.30
2018-04-28T21:51:58.557Z,59.60
2018-04-28T21:54:26.997Z,59.70
2018-04-28T21:56:56.197Z,59.90
2018-04-28T21:59:25.401Z,59.90
2018-04-28T22:01:53.881Z,60.60
2018-04-28T22:04:22.319Z,60.30
2018-04-28T22:06:50.757Z,60.70
2018-04-28T22:09:19.200Z,60.90
2018-04-28T22:11:48.396Z,61.60
2018-04-28T22:14:17.614Z,61.90
2018-04-28T22:16:46.103Z,61.80
2018-04-28T22:19:14.301Z,61.70
2018-04-28T22:21:42.755Z,61.70
2018-04-28T22:24:11.201Z,61.90
2018-04-28T22:26:40.399Z,63.70
2018-04-28T22:29:09.583Z,64.10
2018-04-28T22:31:37.880Z,64.00
2018-04-28T22:34:06.332Z,65.30
2018-04-28T22:36:34.761Z,66.20
2018-04-28T22:39:02.964Z,66.10
2018-04-28T22:41:32.237Z,65.90
2018-04-28T22:44:00.819Z,65.30
2018-04-28T22:46:29.252Z,64.80
2018-04-28T22:48:57.682Z,64.70
2018-04-28T22:51:26.125Z,64.40
2018-04-28T22:53:55.320Z,64.30
2018-04-28T22:56:24.525Z,64.20
2018-04-28T22:58:52.957Z,64.20
2018-04-28T23:01:21.387Z,64.40
2018-04-28T23:03:49.807Z,64.40
2018-04-28T23:06:18.243Z,64.40
2018-04-28T23:08:47.202Z,64.30
2018-04-28T23:11:15.639Z,64.40
2018-04-28T23:13:44.082Z,64.60
2018-04-28T23:16:12.953Z,64.50
2018-04-28T23:18:41.401Z,64.40
2018-04-28T23:21:09.829Z,65.20
2018-04-28T23:23:39.029Z,64.10
2018-04-28T23:26:08.221Z,64.20
2018-04-28T23:28:37.431Z,64.30
2018-04-28T23:31:05.861Z,64.30
2018-04-28T23:33:34.318Z,64.40
2018-04-28T23:36:03.029Z,64.20
2018-04-28T23:38:31.663Z,64.20
2018-04-28T23:41:00.257Z,64.40
2018-04-28T23:43:28.689Z,64.30
2018-04-28T23:45:57.178Z,64.30
2018-04-28T23:48:26.389Z,64.30
2018-04-28T23:50:54.836Z,64.30
2018-04-28T23:53:23.034Z,64.10
2018-04-28T23:55:52.254Z,64.00
2018-04-28T23:58:20.668Z,64.00
